createdAt,value
2023-02-11T01:12:23.659Z,100672.75
2023-02-11T01:14:52.003Z,100669.50
2023-02-11T01:17:20.789Z,100672.16
2023-02-11T01:19:51.311Z,100672.81
2023-02-11T01:22:19.359Z,100677.83
2023-02-11T01:24:48.876Z,100676.30
2023-02-11T01:27:16.952Z,100673.73
2023-02-11T01:29:45.938Z,100673.23
2023-02-11T01:32:14.582Z,100676.86
2023-02-11T01:34:42.662Z,100673.92
2023-02-11T01:37:10.618Z,100671.88
2023-02-11T01:39:38.560Z,100671.96
2023-02-11T01:42:06.574Z,100670.99
2023-02-11T01:44:39.181Z,100672.97
2023-02-11T01:47:07.104Z,100673.90
2023-02-11T01:49:38.712Z,100672.73
2023-02-11T01:52:22.369Z,100669.61
2023-02-11T01:55:15.771Z,100666.64
2023-02-11T01:57:46.571Z,100656.72
2023-02-11T02:00:38.161Z,100656.87
2023-02-11T02:03:10.025Z,100656.55
2023-02-11T02:05:52.083Z,100655.92
2023-02-11T02:08:32.242Z,100657.63
2023-02-11T02:11:05.694Z,100651.77
2023-02-11T02:13:36.191Z,100651.09
2023-02-11T02:16:08.594Z,100651.45
2023-02-11T02:19:14.272Z,100643.34
2023-02-11T02:21:55.581Z,100642.16
2023-02-11T02:24:27.888Z,100641.85
2023-02-11T02:27:17.262Z,100637.77
2023-02-11T02:30:10.684Z,100641.64
2023-02-11T02:33:16.766Z,100637.86
2023-02-11T02:35:55.901Z,100632.55
2023-02-11T02:38:51.037Z,100638.64
2023-02-11T02:41:24.585Z,100633.46
2023-02-11T02:43:52.620Z,100636.59
2023-02-11T02:46:21.664Z,100633.65
2023-02-11T02:48:49.884Z,100630.60
2023-02-11T02:51:27.459Z,100631.40
2023-02-11T02:54:14.662Z,100636.33
2023-02-11T02:56:48.291Z,100631.71
2023-02-11T02:59:34.517Z,100635.17
2023-02-11T03:02:18.913Z,100634.69
2023-02-11T03:05:14.875Z,100633.48
2023-02-11T03:08:01.480Z,100631.36
2023-02-11T03:10:37.167Z,100629.79
2023-02-11T03:13:05.511Z,100626.48
2023-02-11T03:15:37.658Z,100624.38
2023-02-11T03:18:05.540Z,100625.15
2023-02-11T03:20:33.555Z,100626.67
2023-02-11T03:23:06.568Z,100625.76
2023-02-11T03:25:39.694Z,100623.27
2023-02-11T03:28:33.146Z,100620.70
2023-02-11T03:31:18.570Z,100617.67
2023-02-11T03:34:04.489Z,100618.60
2023-02-11T03:36:46.152Z,100609.15
2023-02-11T03:39:21.061Z,100603.17
2023-02-11T03:41:49.014Z,100602.89
2023-02-11T03:44:17.575Z,100599.98
2023-02-11T03:46:48.863Z,100598.61
2023-02-11T03:49:18.432Z,100596.26
2023-02-11T03:51:47.087Z,100593.58
2023-02-11T03:54:16.696Z,100586.25
2023-02-11T03:56:51.087Z,100587.06
2023-02-11T03:59:19.422Z,100576.13
2023-02-11T04:01:49.713Z,100570.39
2023-02-11T04:04:17.699Z,100564.86
2023-02-11T04:06:45.589Z,100571.30
2023-02-11T04:09:13.980Z,100566.29
2023-02-11T04:11:44.297Z,100568.02
2023-02-11T04:14:12.332Z,100569.40
2023-02-11T04:16:40.175Z,100569.38
2023-02-11T04:19:08.469Z,100566.52
2023-02-11T04:21:36.766Z,100563.13
2023-02-11T04:24:05.723Z,100560.91
2023-02-11T04:26:34.339Z,100557.27
2023-02-11T04:29:02.290Z,100554.73
2023-02-11T04:31:30.377Z,100552.91
2023-02-11T04:33:58.330Z,100553.08
2023-02-11T04:36:26.278Z,100552.89
2023-02-11T04:38:54.378Z,100546.92
2023-02-11T04:41:22.591Z,100543.38
2023-02-11T04:43:50.488Z,100542.91
2023-02-11T04:46:18.425Z,100535.37
2023-02-11T04:48:49.858Z,100531.81
2023-02-11T04:51:17.832Z,100526.02
2023-02-11T04:53:46.666Z,100527.66
2023-02-11T04:56:15.304Z,100523.93
2023-02-11T04:58:43.175Z,100515.64
2023-02-11T05:01:13.099Z,100511.36
2023-02-11T05:03:41.291Z,100505.91
2023-02-11T05:06:10.055Z,100509.48
2023-02-11T05:08:38.045Z,100512.89
2023-02-11T05:11:06.235Z,100515.46
2023-02-11T05:13:34.393Z,100514.05
2023-02-11T05:16:02.328Z,100513.16
2023-02-11T05:18:30.822Z,100511.73
2023-02-11T05:20:58.811Z,100510.98
2023-02-11T05:23:27.361Z,100510.80
2023-02-11T05:25:55.396Z,100522.27
2023-02-11T05:28:24.112Z,100519.88
2023-02-11T05:30:52.244Z,100513.96
2023-02-11T05:33:20.457Z,100516.67
2023-02-11T05:35:49.331Z,100515.20
2023-02-11T05:38:17.751Z,100513.49
2023-02-11T05:40:45.907Z,100509.20
2023-02-11T05:43:13.927Z,100503.79
2023-02-11T05:45:42.029Z,100505.74
2023-02-11T05:48:10.051Z,100506.34
2023-02-11T05:50:38.089Z,100510.58
2023-02-11T05:53:06.951Z,100507.83
2023-02-11T05:55:35.194Z,100494.50
2023-02-11T05:58:03.309Z,100491.23
2023-02-11T06:00:31.245Z,100487.75
2023-02-11T06:02:59.421Z,100478.04
2023-02-11T06:05:27.720Z,100475.40
2023-02-11T06:07:55.692Z,100473.29
2023-02-11T06:10:23.693Z,100467.02
2023-02-11T06:12:51.616Z,100461.46
2023-02-11T06:15:20.841Z,100456.44
2023-02-11T06:17:48.831Z,100451.98
2023-02-11T06:20:21.592Z,100456.24
2023-02-11T06:22:50.208Z,100451.36
2023-02-11T06:25:18.186Z,100452.68
2023-02-11T06:27:46.688Z,100446.29
2023-02-11T06:30:14.936Z,100443.36
2023-02-11T06:35:22.806Z,100436.81
2023-02-11T06:37:53.823Z,100434.41
2023-02-11T06:40:21.721Z,100428.70
2023-02-11T06:42:51.076Z,100425.90
2023-02-11T06:45:20.762Z,100417.70
2023-02-11T06:47:48.652Z,100417.44
2023-02-11T06:50:16.725Z,100418.71
2023-02-11T06:52:45.825Z,100409.81
2023-02-11T06:55:14.300Z,100408.39
2023-02-11T06:57:42.246Z,100400.59
2023-02-11T07:00:11.261Z,100396.18
2023-02-11T07:02:39.295Z,100391.84
2023-02-11T07:05:08.208Z,100389.48
2023-02-11T07:07:36.670Z,100388.61
2023-02-11T07:10:08.481Z,100383.89
2023-02-11T07:12:40.520Z,100380.48
2023-02-11T07:15:08.732Z,100387.36
2023-02-11T07:17:36.771Z,100385.77
2023-02-11T07:20:05.387Z,100385.76
2023-02-11T07:22:34.360Z,100386.66
2023-02-11T07:25:02.310Z,100385.81
2023-02-11T07:27:31.926Z,100383.90
2023-02-11T07:29:59.938Z,100388.00
2023-02-11T07:32:28.032Z,100391.96
2023-02-11T07:34:56.565Z,100393.23
2023-02-11T07:37:24.631Z,100389.61
2023-02-11T07:39:52.541Z,100382.35
2023-02-11T07:42:20.403Z,100385.31
2023-02-11T07:44:50.786Z,100377.83
2023-02-11T07:47:18.806Z,100380.02
2023-02-11T07:49:47.712Z,100377.55
2023-02-11T07:52:16.194Z,100377.16
2023-02-11T07:54:44.204Z,100370.59
2023-02-11T07:57:12.704Z,100363.20
2023-02-11T07:59:41.557Z,100358.48
2023-02-11T08:02:09.771Z,100353.73
2023-02-11T08:04:37.863Z,100344.68
2023-02-11T08:07:07.033Z,100336.66
2023-02-11T08:09:41.501Z,100326.24
2023-02-11T08:12:09.334Z,100322.35
2023-02-11T08:14:37.374Z,100326.00
2023-02-11T08:17:05.493Z,100326.86
2023-02-11T08:19:35.165Z,100325.15
2023-02-11T08:22:03.928Z,100322.22
2023-02-11T08:24:32.080Z,100318.30
2023-02-11T08:27:02.160Z,100312.67
2023-02-11T08:29:30.704Z,100307.25
2023-02-11T08:31:58.817Z,100304.96
2023-02-11T08:34:26.888Z,100306.02
2023-02-11T08:36:54.883Z,100308.92
2023-02-11T08:39:22.933Z,100308.39
2023-02-11T08:41:52.919Z,100302.67
2023-02-11T08:44:21.216Z,100301.83
2023-02-11T08:46:49.409Z,100305.27
2023-02-11T08:49:17.419Z,100304.48
2023-02-11T08:51:45.825Z,100299.06
2023-02-11T08:54:14.522Z,100291.16
2023-02-11T08:56:42.760Z,100284.85
2023-02-11T08:59:13.688Z,100285.16
2023-02-11T09:01:42.291Z,100283.36
2023-02-11T09:04:10.571Z,100277.21
2023-02-11T09:06:38.640Z,100276.59
2023-02-11T09:09:07.094Z,100273.45
2023-02-11T09:11:35.295Z,100270.50
2023-02-11T09:14:04.123Z,100271.23
2023-02-11T09:16:34.753Z,100276.94
2023-02-11T09:19:05.123Z,100263.73
2023-02-11T09:21:34.739Z,100263.25
2023-02-11T09:24:02.626Z,100255.45
2023-02-11T09:26:32.504Z,100243.79
2023-02-11T09:29:00.548Z,100235.65
2023-02-11T09:31:29.689Z,100226.14
2023-02-11T09:33:59.799Z,100225.48
2023-02-11T09:36:29.384Z,100221.88
2023-02-11T09:38:59.124Z,100218.62
2023-02-11T09:41:58.130Z,100213.60
2023-02-11T09:44:28.579Z,100208.73
2023-02-11T09:47:02.348Z,100210.22
2023-02-11T09:49:42.201Z,100211.23
2023-02-11T09:52:41.827Z,100207.89
2023-02-11T09:55:38.027Z,100202.05
2023-02-11T09:58:32.248Z,100192.29
2023-02-11T10:01:25.092Z,100183.42
2023-02-11T10:04:18.136Z,100178.16
2023-02-11T10:06:56.519Z,100176.41
2023-02-11T10:09:28.235Z,100172.06
2023-02-11T10:12:11.213Z,100166.08
2023-02-11T10:14:48.501Z,100163.59
2023-02-11T10:17:35.226Z,100161.60
2023-02-11T10:20:21.751Z,100148.86
2023-02-11T10:22:55.097Z,100139.11
2023-02-11T10:25:28.453Z,100134.87
2023-02-11T10:27:58.194Z,100127.23
2023-02-11T10:30:32.964Z,100121.61
2023-02-11T10:33:15.780Z,100122.08
2023-02-11T10:35:43.973Z,100113.17
2023-02-11T10:38:11.877Z,100115.17
2023-02-11T10:40:40.306Z,100109.70
2023-02-11T10:43:13.886Z,100106.80
2023-02-11T10:45:46.418Z,100101.67
2023-02-11T10:48:37.324Z,100095.53
2023-02-11T10:51:14.039Z,100096.09
2023-02-11T10:53:43.141Z,100088.80
2023-02-11T10:56:26.903Z,100082.94
2023-02-11T10:59:21.511Z,100078.67
2023-02-11T11:01:50.806Z,100072.23
2023-02-11T11:04:30.742Z,100075.23
2023-02-11T11:07:19.067Z,100065.91
2023-02-11T11:09:59.746Z,100059.71
2023-02-11T11:12:28.755Z,100051.56
2023-02-11T11:15:19.065Z,100042.55
2023-02-11T11:17:50.904Z,100039.29
2023-02-11T11:20:29.770Z,100030.00
2023-02-11T11:23:17.552Z,100022.74
2023-02-11T11:25:46.961Z,100014.39
2023-02-11T11:28:25.590Z,100011.48
2023-02-11T11:30:54.916Z,99999.35
2023-02-11T11:33:27.414Z,99997.51
2023-02-11T11:36:06.597Z,99994.66
2023-02-11T11:38:36.808Z,99989.58
2023-02-11T11:41:31.268Z,99983.08
2023-02-11T11:44:24.362Z,99985.63
2023-02-11T11:47:26.997Z,99984.45
2023-02-11T11:50:09.419Z,99974.32
2023-02-11T11:53:21.212Z,99963.55
2023-02-11T11:55:57.925Z,99952.61
2023-02-11T11:58:28.186Z,99947.59
2023-02-11T12:01:05.375Z,99938.30
2023-02-11T12:03:39.633Z,99938.23
2023-02-11T12:06:13.445Z,99940.91
2023-02-11T12:08:47.101Z,99935.95
2023-02-11T12:11:26.396Z,99926.01
2023-02-11T12:14:23.770Z,99916.39
2023-02-11T12:16:57.414Z,99908.52
2023-02-11T12:19:35.115Z,99901.66
2023-02-11T12:22:09.727Z,99888.20
2023-02-11T12:25:02.742Z,99884.21
2023-02-11T12:28:03.943Z,99882.98
2023-02-11T12:30:48.102Z,99878.23
2023-02-11T12:33:38.375Z,99868.04
2023-02-11T12:36:20.708Z,99854.53
2023-02-11T12:39:02.689Z,99855.18
2023-02-11T12:41:49.761Z,99844.79
2023-02-11T12:44:47.918Z,99843.86
2023-02-11T12:47:30.875Z,99845.74
2023-02-11T12:50:30.095Z,99842.39
2023-02-11T12:53:08.921Z,99836.94
2023-02-11T12:55:42.723Z,99838.67
2023-02-11T12:58:20.256Z,99838.36
2023-02-11T13:01:06.332Z,99831.07
2023-02-11T13:03:39.743Z,99827.61
2023-02-11T13:06:37.907Z,99822.68
2023-02-11T13:09:10.066Z,99814.30
2023-02-11T13:11:40.613Z,99807.48
2023-02-11T13:14:37.165Z,99797.98
2023-02-11T13:17:11.996Z,99796.55
2023-02-11T13:19:44.168Z,99790.50
2023-02-11T13:22:24.291Z,99783.88
2023-02-11T13:25:15.612Z,99775.23
2023-02-11T13:28:08.103Z,99773.27
2023-02-11T13:30:39.578Z,99768.02
2023-02-11T13:33:30.962Z,99764.08
2023-02-11T13:35:58.791Z,99750.66
2023-02-11T13:38:28.678Z,99743.19
2023-02-11T13:41:05.091Z,99737.05
2023-02-11T13:43:34.807Z,99739.64
2023-02-11T13:46:04.423Z,99729.48
2023-02-11T13:48:38.183Z,99728.16
2023-02-11T13:51:09.187Z,99727.12
2023-02-11T13:53:50.838Z,99729.88
2023-02-11T13:56:32.247Z,99723.85
2023-02-11T13:59:02.554Z,99728.00
2023-02-11T14:02:11.654Z,99724.52
2023-02-11T14:05:23.919Z,99727.07
2023-02-11T14:08:26.352Z,99723.73
2023-02-11T14:10:55.270Z,99723.00
2023-02-11T14:13:26.593Z,99722.28
2023-02-11T14:16:03.917Z,99726.42
2023-02-11T14:18:46.994Z,99724.13
2023-02-11T14:21:20.285Z,99719.36
2023-02-11T14:23:48.484Z,99707.30
2023-02-11T14:26:31.083Z,99710.78
2023-02-11T14:29:01.661Z,99699.11
2023-02-11T14:31:41.194Z,99689.94
2023-02-11T14:34:27.373Z,99687.71
2023-02-11T14:37:13.848Z,99685.34
2023-02-11T14:39:54.880Z,99674.59
2023-02-11T14:42:26.524Z,99669.48
2023-02-11T14:44:56.630Z,99660.77
2023-02-11T14:47:53.875Z,99655.92
2023-02-11T14:50:28.315Z,99650.77
2023-02-11T14:52:56.189Z,99651.41
2023-02-11T14:55:33.262Z,99645.26
2023-02-11T14:58:18.982Z,99638.78
2023-02-11T15:01:00.313Z,99639.73
2023-02-11T15:03:32.911Z,99635.81
2023-02-11T15:06:19.889Z,99631.55
2023-02-11T15:09:14.600Z,99627.35
2023-02-11T15:11:43.705Z,99626.33
2023-02-11T15:14:17.233Z,99623.27
2023-02-11T15:16:45.665Z,99623.30
2023-02-11T15:19:36.110Z,99618.45
2023-02-11T15:22:04.885Z,99619.86
2023-02-11T15:24:35.457Z,99621.52
2023-02-11T15:27:04.636Z,99627.61
2023-02-11T15:29:39.238Z,99629.93
2023-02-11T15:32:13.551Z,99628.38
2023-02-11T15:34:41.629Z,99625.53
2023-02-11T15:37:18.747Z,99618.86
2023-02-11T15:39:46.924Z,99610.19
2023-02-11T15:42:32.521Z,99603.11
2023-02-11T15:45:15.809Z,99604.31
2023-02-11T15:47:50.086Z,99608.18
2023-02-11T15:50:22.584Z,99610.33
2023-02-11T15:52:50.690Z,99609.85
2023-02-11T15:55:18.727Z,99616.14
2023-02-11T15:57:56.950Z,99615.14
2023-02-11T16:00:31.622Z,99617.74
2023-02-11T16:02:59.632Z,99605.12
2023-02-11T16:05:35.593Z,99603.63
2023-02-11T16:08:21.143Z,99601.61
2023-02-11T16:11:03.143Z,99595.14
2023-02-11T16:13:34.534Z,99589.02
2023-02-11T16:16:04.791Z,99589.55
2023-02-11T16:18:40.356Z,99587.34
2023-02-11T16:21:15.885Z,99585.66
2023-02-11T16:23:49.634Z,99582.92
2023-02-11T16:26:25.150Z,99582.57
2023-02-11T16:28:53.098Z,99579.38
2023-02-11T16:31:21.608Z,99579.84
2023-02-11T16:33:49.671Z,99568.28
2023-02-11T16:36:18.586Z,99564.34
2023-02-11T16:38:46.500Z,99558.58
2023-02-11T16:41:16.865Z,99556.83
2023-02-11T16:43:45.201Z,99556.17
2023-02-11T16:46:15.862Z,99550.89
2023-02-11T16:48:43.896Z,99542.20
2023-02-11T16:51:11.928Z,99536.41
2023-02-11T16:53:40.835Z,99530.84
2023-02-11T16:56:13.981Z,99527.45
2023-02-11T16:58:42.234Z,99530.29
2023-02-11T17:01:12.862Z,99531.92
2023-02-11T17:03:43.813Z,99526.85
2023-02-11T17:06:13.595Z,99524.88
2023-02-11T17:08:41.807Z,99515.30
2023-02-11T17:11:09.883Z,99514.81
2023-02-11T17:13:39.630Z,99512.69
2023-02-11T17:16:12.701Z,99517.64
2023-02-11T17:18:41.321Z,99509.77
2023-02-11T17:21:09.451Z,99506.13
2023-02-11T17:23:37.728Z,99504.85
2023-02-11T17:26:05.863Z,99495.40
2023-02-11T17:28:34.597Z,99491.50
2023-02-11T17:31:06.396Z,99485.73
2023-02-11T17:33:37.933Z,99487.34
2023-02-11T17:36:07.643Z,99483.77
2023-02-11T17:38:36.179Z,99484.08
2023-02-11T17:41:04.830Z,99486.80
2023-02-11T17:43:32.788Z,99484.45
2023-02-11T17:46:00.833Z,99483.52
2023-02-11T17:48:28.905Z,99480.28
2023-02-11T17:50:56.969Z,99479.45
2023-02-11T17:53:27.953Z,99478.58
2023-02-11T17:55:57.216Z,99477.04
2023-02-11T17:58:25.264Z,99473.23
2023-02-11T18:00:53.293Z,99470.80
2023-02-11T18:03:21.308Z,99473.41
2023-02-11T18:05:49.917Z,99468.56
2023-02-11T18:08:17.964Z,99469.38
2023-02-11T18:10:46.138Z,99464.15
2023-02-11T18:13:14.010Z,99457.10
2023-02-11T18:15:43.504Z,99456.09
2023-02-11T18:18:12.091Z,99454.16
2023-02-11T18:20:42.848Z,99451.41
2023-02-11T18:23:10.972Z,99454.92
2023-02-11T18:25:42.090Z,99452.80
2023-02-11T18:28:10.167Z,99451.52
2023-02-11T18:30:38.324Z,99448.69
2023-02-11T18:33:09.065Z,99452.81
2023-02-11T18:35:38.645Z,99452.02
2023-02-11T18:38:06.912Z,99447.75
2023-02-11T18:40:43.798Z,99443.83
2023-02-11T18:43:12.577Z,99442.20
2023-02-11T18:45:44.766Z,99442.39
2023-02-11T18:48:13.738Z,99440.52
2023-02-11T18:52:28.191Z,99443.17
2023-02-11T18:54:56.733Z,99438.03
2023-02-11T18:57:24.740Z,99438.55
2023-02-11T18:59:52.606Z,99434.30
2023-02-11T19:02:20.576Z,99436.27
2023-02-11T19:04:48.505Z,99439.91
2023-02-11T19:07:16.488Z,99432.10
2023-02-11T19:09:44.341Z,99431.71
2023-02-11T19:12:12.582Z,99425.59
2023-02-11T19:14:40.566Z,99426.42
2023-02-11T19:17:10.738Z,99424.90
2023-02-11T19:19:39.009Z,99419.53
2023-02-11T19:22:10.290Z,99423.23
2023-02-11T19:24:39.473Z,99415.83
2023-02-11T19:27:11.051Z,99410.45
2023-02-11T19:29:39.164Z,99406.39
2023-02-11T19:32:07.220Z,99409.16
2023-02-11T19:34:41.183Z,99405.05
2023-02-11T19:37:12.156Z,99403.23
2023-02-11T19:39:41.481Z,99397.48
2023-02-11T19:42:13.866Z,99394.30
2023-02-11T19:44:42.178Z,99393.11
2023-02-11T19:47:10.595Z,99383.73
2023-02-11T19:49:38.448Z,99384.05
2023-02-11T19:52:06.321Z,99376.47
2023-02-11T19:54:34.890Z,99373.23
2023-02-11T19:57:08.120Z,99365.77
2023-02-11T19:59:36.053Z,99357.98
2023-02-11T20:02:04.008Z,99360.61
2023-02-11T20:04:33.454Z,99363.29
2023-02-11T20:07:01.309Z,99360.34
2023-02-11T20:09:31.215Z,99358.52
2023-02-11T20:11:59.614Z,99355.00
2023-02-11T20:14:28.384Z,99355.93
2023-02-11T20:16:56.384Z,99357.13
2023-02-11T20:19:25.788Z,99350.33
2023-02-11T20:21:56.021Z,99348.29
2023-02-11T20:24:24.490Z,99352.73
2023-02-11T20:26:55.944Z,99355.31
2023-02-11T20:29:24.480Z,99345.09
2023-02-11T20:31:52.490Z,99350.11
2023-02-11T20:34:21.986Z,99344.92
2023-02-11T20:36:53.120Z,99345.15
2023-02-11T20:39:22.380Z,99344.32
2023-02-11T20:41:51.127Z,99341.92
2023-02-11T20:44:21.800Z,99342.95
2023-02-11T20:46:50.111Z,99343.10
2023-02-11T20:49:20.657Z,99338.14
2023-02-11T20:51:49.448Z,99335.98
2023-02-11T20:54:18.768Z,99335.76
2023-02-11T20:56:51.226Z,99331.41
2023-02-11T20:59:20.910Z,99327.15
2023-02-11T21:01:50.896Z,99335.33
2023-02-11T21:04:20.637Z,99333.67
2023-02-11T21:06:50.096Z,99330.20
2023-02-11T21:09:20.344Z,99329.17
2023-02-11T21:11:53.917Z,99332.52
2023-02-11T21:14:22.802Z,99338.12
2023-02-11T21:16:50.863Z,99333.77
2023-02-11T21:19:18.984Z,99330.89
2023-02-11T21:21:47.040Z,99325.21
2023-02-11T21:24:15.272Z,99320.77
2023-02-11T21:26:43.196Z,99316.90
2023-02-11T21:29:11.701Z,99320.33
2023-02-11T21:31:40.520Z,99312.37
2023-02-11T21:34:09.911Z,99316.85
2023-02-11T21:36:37.984Z,99308.82
2023-02-11T21:39:06.045Z,99312.27
2023-02-11T21:41:35.078Z,99312.17
2023-02-11T21:44:03.129Z,99309.96
2023-02-11T21:46:32.080Z,99306.90
2023-02-11T21:49:00.480Z,99308.80
2023-02-11T21:51:28.528Z,99309.64
2023-02-11T21:53:58.200Z,99309.29
2023-02-11T21:56:28.161Z,99307.48
2023-02-11T21:58:57.661Z,99308.30
2023-02-11T22:01:30.145Z,99313.96
2023-02-11T22:03:58.434Z,99312.09
2023-02-11T22:06:28.595Z,99308.15
2023-02-11T22:08:56.456Z,99310.73
2023-02-11T22:11:24.926Z,99308.08
2023-02-11T22:13:55.146Z,99307.85
2023-02-11T22:16:25.121Z,99302.06
2023-02-11T22:18:53.261Z,99300.83
2023-02-11T22:21:22.192Z,99297.73
2023-02-11T22:23:50.840Z,99299.53
2023-02-11T22:26:20.691Z,99304.83
2023-02-11T22:28:49.376Z,99304.41
2023-02-11T22:31:22.178Z,99303.64
2023-02-11T22:33:50.330Z,99302.80
2023-02-11T22:36:25.554Z,99304.98
2023-02-11T22:38:53.934Z,99314.84
2023-02-11T22:41:22.124Z,99311.67
2023-02-11T22:43:50.261Z,99306.94
2023-02-11T22:46:19.042Z,99313.30
2023-02-11T22:48:47.679Z,99311.26
2023-02-11T22:51:26.476Z,99307.98
2023-02-11T22:53:59.103Z,99309.30
2023-02-11T22:56:28.048Z,99312.60
2023-02-11T22:59:01.416Z,99318.13
2023-02-11T23:01:29.759Z,99317.19
2023-02-11T23:03:59.348Z,99309.08
2023-02-11T23:06:27.466Z,99311.30
2023-02-11T23:08:55.791Z,99312.51
2023-02-11T23:11:28.463Z,99312.59
2023-02-11T23:13:59.119Z,99316.21
2023-02-11T23:16:30.830Z,99315.95
2023-02-11T23:19:00.199Z,99311.96
2023-02-11T23:21:30.167Z,99316.58
2023-02-11T23:24:03.206Z,99318.16
2023-02-11T23:26:32.533Z,99319.69
2023-02-11T23:29:00.587Z,99324.81
2023-02-11T23:31:40.370Z,99324.73
2023-02-11T23:34:08.820Z,99326.17
2023-02-11T23:36:36.937Z,99328.73
2023-02-11T23:39:08.870Z,99329.65
2023-02-11T23:41:37.685Z,99333.54
2023-02-11T23:44:05.791Z,99328.80
2023-02-11T23:46:33.750Z,99330.48
2023-02-11T23:49:04.030Z,99333.74
2023-02-11T23:51:31.936Z,99337.14
2023-02-11T23:53:59.927Z,99332.89
2023-02-11T23:56:27.994Z,99338.80
2023-02-11T23:58:57.094Z,99339.61
